sensor_id;sensor_type;location;lat;lon;timestamp;P1;durP1;ratioP1;P2;durP2;ratioP2
17414;SDS011;8825;48.086;16.426;2023-05-17T00:00:45;3.20;;;3.00;;
17414;SDS011;8825;48.086;16.426;2023-05-17T00:03:13;3.73;;;3.43;;
17414;SDS011;8825;48.086;16.426;2023-05-17T00:05:40;3.50;;;3.20;;
17414;SDS011;8825;48.086;16.426;2023-05-17T00:08:08;3.30;;;3.00;;
17414;SDS011;8825;48.086;16.426;2023-05-17T00:10:36;3.80;;;3.30;;
17414;SDS011;8825;48.086;16.426;2023-05-17T00:13:03;3.53;;;3.23;;
17414;SDS011;8825;48.086;16.426;2023-05-17T00:15:31;3.30;;;3.00;;
17414;SDS011;8825;48.086;16.426;2023-05-17T00:17:59;3.10;;;2.90;;
17414;SDS011;8825;48.086;16.426;2023-05-17T00:20:26;3.30;;;3.00;;
17414;SDS011;8825;48.086;16.426;2023-05-17T00:22:54;2.80;;;2.60;;
17414;SDS011;8825;48.086;16.426;2023-05-17T00:25:21;3.03;;;2.53;;
17414;SDS011;8825;48.086;16.426;2023-05-17T00:27:49;2.77;;;2.57;;
17414;SDS011;8825;48.086;16.426;2023-05-17T00:30:16;2.30;;;2.20;;
17414;SDS011;8825;48.086;16.426;2023-05-17T00:32:44;2.60;;;2.40;;
17414;SDS011;8825;48.086;16.426;2023-05-17T00:35:13;2.77;;;2.57;;
17414;SDS011;8825;48.086;16.426;2023-05-17T00:37:40;3.07;;;2.77;;
17414;SDS011;8825;48.086;16.426;2023-05-17T00:40:10;2.87;;;2.67;;
17414;SDS011;8825;48.086;16.426;2023-05-17T00:42:38;2.93;;;2.73;;
17414;SDS011;8825;48.086;16.426;2023-05-17T00:45:06;2.70;;;2.50;;
17414;SDS011;8825;48.086;16.426;2023-05-17T00:47:34;2.40;;;2.20;;
17414;SDS011;8825;48.086;16.426;2023-05-17T00:50:02;2.70;;;2.50;;
17414;SDS011;8825;48.086;16.426;2023-05-17T00:52:30;2.50;;;2.30;;
17414;SDS011;8825;48.086;16.426;2023-05-17T00:54:58;2.20;;;2.10;;
17414;SDS011;8825;48.086;16.426;2023-05-17T00:57:25;2.37;;;2.17;;
17414;SDS011;8825;48.086;16.426;2023-05-17T00:59:54;2.57;;;2.37;;
17414;SDS011;8825;48.086;16.426;2023-05-17T01:02:22;2.80;;;2.20;;
17414;SDS011;8825;48.086;16.426;2023-05-17T01:04:50;2.57;;;2.37;;
17414;SDS011;8825;48.086;16.426;2023-05-17T01:07:17;2.53;;;2.33;;
17414;SDS011;8825;48.086;16.426;2023-05-17T01:09:45;2.40;;;2.20;;
17414;SDS011;8825;48.086;16.426;2023-05-17T01:15:07;2.10;;;1.87;;
17414;SDS011;8825;48.086;16.426;2023-05-17T01:20:25;2.30;;;2.07;;
17414;SDS011;8825;48.086;16.426;2023-05-17T01:23:02;2.23;;;2.03;;
17414;SDS011;8825;48.086;16.426;2023-05-17T01:28:22;2.10;;;2.00;;
17414;SDS011;8825;48.086;16.426;2023-05-17T01:30:52;2.30;;;1.93;;
17414;SDS011;8825;48.086;16.426;2023-05-17T01:33:21;1.90;;;1.80;;
17414;SDS011;8825;48.086;16.426;2023-05-17T01:35:49;2.33;;;2.13;;
17414;SDS011;8825;48.086;16.426;2023-05-17T01:38:17;2.20;;;2.10;;
17414;SDS011;8825;48.086;16.426;2023-05-17T01:41:06;2.17;;;2.00;;
17414;SDS011;8825;48.086;16.426;2023-05-17T01:43:21;2.50;;;2.30;;
17414;SDS011;8825;48.086;16.426;2023-05-17T01:48:40;2.30;;;2.10;;
17414;SDS011;8825;48.086;16.426;2023-05-17T01:51:10;2.20;;;2.10;;
17414;SDS011;8825;48.086;16.426;2023-05-17T01:53:43;2.27;;;2.07;;
17414;SDS011;8825;48.086;16.426;2023-05-17T01:56:21;2.13;;;2.03;;
17414;SDS011;8825;48.086;16.426;2023-05-17T01:58:53;2.20;;;2.10;;
17414;SDS011;8825;48.086;16.426;2023-05-17T02:01:24;1.90;;;1.80;;
17414;SDS011;8825;48.086;16.426;2023-05-17T02:03:53;1.90;;;1.80;;
17414;SDS011;8825;48.086;16.426;2023-05-17T02:06:21;1.77;;;1.67;;
17414;SDS011;8825;48.086;16.426;2023-05-17T02:08:48;1.80;;;1.70;;
17414;SDS011;8825;48.086;16.426;2023-05-17T02:11:16;1.73;;;1.63;;
17414;SDS011;8825;48.086;16.426;2023-05-17T02:13:43;1.77;;;1.67;;
17414;SDS011;8825;48.086;16.426;2023-05-17T02:16:11;1.90;;;1.80;;
17414;SDS011;8825;48.086;16.426;2023-05-17T02:18:38;1.90;;;1.73;;
17414;SDS011;8825;48.086;16.426;2023-05-17T02:21:06;1.80;;;1.70;;
17414;SDS011;8825;48.086;16.426;2023-05-17T02:23:33;1.67;;;1.57;;
17414;SDS011;8825;48.086;16.426;2023-05-17T02:26:01;1.70;;;1.60;;
17414;SDS011;8825;48.086;16.426;2023-05-17T02:28:29;1.60;;;1.50;;
17414;SDS011;8825;48.086;16.426;2023-05-17T02:30:56;1.53;;;1.43;;
17414;SDS011;8825;48.086;16.426;2023-05-17T02:33:24;1.87;;;1.77;;
17414;SDS011;8825;48.086;16.426;2023-05-17T02:35:51;1.70;;;1.60;;
17414;SDS011;8825;48.086;16.426;2023-05-17T02:38:19;1.60;;;1.50;;
17414;SDS011;8825;48.086;16.426;2023-05-17T02:40:46;1.93;;;1.80;;
17414;SDS011;8825;48.086;16.426;2023-05-17T02:43:14;1.70;;;1.60;;
17414;SDS011;8825;48.086;16.426;2023-05-17T02:45:42;4.07;;;1.90;;
17414;SDS011;8825;48.086;16.426;2023-05-17T02:48:10;3.37;;;1.80;;
17414;SDS011;8825;48.086;16.426;2023-05-17T02:50:38;1.90;;;1.70;;
17414;SDS011;8825;48.086;16.426;2023-05-17T02:53:06;1.80;;;1.70;;
17414;SDS011;8825;48.086;16.426;2023-05-17T02:55:33;1.90;;;1.80;;
17414;SDS011;8825;48.086;16.426;2023-05-17T02:58:00;2.63;;;1.70;;
17414;SDS011;8825;48.086;16.426;2023-05-17T03:00:29;1.80;;;1.70;;
17414;SDS011;8825;48.086;16.426;2023-05-17T03:02:56;1.80;;;1.70;;
17414;SDS011;8825;48.086;16.426;2023-05-17T03:05:24;1.80;;;1.70;;
17414;SDS011;8825;48.086;16.426;2023-05-17T03:07:51;2.20;;;2.00;;
17414;SDS011;8825;48.086;16.426;2023-05-17T03:10:19;2.00;;;1.90;;
17414;SDS011;8825;48.086;16.426;2023-05-17T03:12:46;3.20;;;2.03;;
17414;SDS011;8825;48.086;16.426;2023-05-17T03:15:14;2.57;;;2.00;;
17414;SDS011;8825;48.086;16.426;2023-05-17T03:17:41;2.60;;;2.40;;
17414;SDS011;8825;48.086;16.426;2023-05-17T03:20:09;2.20;;;2.10;;
17414;SDS011;8825;48.086;16.426;2023-05-17T03:22:37;2.17;;;2.07;;
17414;SDS011;8825;48.086;16.426;2023-05-17T03:25:05;2.47;;;2.27;;
17414;SDS011;8825;48.086;16.426;2023-05-17T03:27:33;2.50;;;2.30;;
17414;SDS011;8825;48.086;16.426;2023-05-17T03:30:00;2.67;;;2.47;;
17414;SDS011;8825;48.086;16.426;2023-05-17T03:32:28;1.90;;;1.80;;
17414;SDS011;8825;48.086;16.426;2023-05-17T03:34:56;2.40;;;2.20;;
17414;SDS011;8825;48.086;16.426;2023-05-17T03:37:23;2.60;;;2.40;;
17414;SDS011;8825;48.086;16.426;2023-05-17T03:39:51;2.00;;;1.90;;
17414;SDS011;8825;48.086;16.426;2023-05-17T03:42:19;2.60;;;2.27;;
17414;SDS011;8825;48.086;16.426;2023-05-17T03:44:46;2.13;;;2.03;;
17414;SDS011;8825;48.086;16.426;2023-05-17T03:47:14;2.40;;;2.20;;
17414;SDS011;8825;48.086;16.426;2023-05-17T03:49:41;2.67;;;2.20;;
17414;SDS011;8825;48.086;16.426;2023-05-17T03:52:09;2.57;;;2.37;;
17414;SDS011;8825;48.086;16.426;2023-05-17T03:54:36;2.30;;;2.20;;
17414;SDS011;8825;48.086;16.426;2023-05-17T03:57:04;2.60;;;2.13;;
17414;SDS011;8825;48.086;16.426;2023-05-17T03:59:31;2.60;;;2.40;;
17414;SDS011;8825;48.086;16.426;2023-05-17T04:01:59;2.87;;;2.60;;
17414;SDS011;8825;48.086;16.426;2023-05-17T04:04:26;2.20;;;2.00;;
17414;SDS011;8825;48.086;16.426;2023-05-17T04:06:54;2.83;;;2.63;;
17414;SDS011;8825;48.086;16.426;2023-05-17T04:09:22;2.73;;;2.50;;
17414;SDS011;8825;48.086;16.426;2023-05-17T04:11:50;2.60;;;2.40;;
17414;SDS011;8825;48.086;16.426;2023-05-17T04:14:18;2.80;;;2.60;;
17414;SDS011;8825;48.086;16.426;2023-05-17T04:16:45;2.93;;;2.60;;
17414;SDS011;8825;48.086;16.426;2023-05-17T04:19:13;3.87;;;2.80;;
17414;SDS011;8825;48.086;16.426;2023-05-17T04:21:40;2.60;;;2.40;;
17414;SDS011;8825;48.086;16.426;2023-05-17T04:24:08;2.70;;;2.50;;
17414;SDS011;8825;48.086;16.426;2023-05-17T04:26:35;2.40;;;2.20;;
17414;SDS011;8825;48.086;16.426;2023-05-17T04:29:03;2.50;;;2.30;;
17414;SDS011;8825;48.086;16.426;2023-05-17T04:31:31;2.43;;;2.23;;
17414;SDS011;8825;48.086;16.426;2023-05-17T04:33:59;2.57;;;2.37;;
17414;SDS011;8825;48.086;16.426;2023-05-17T04:36:27;2.77;;;2.57;;
17414;SDS011;8825;48.086;16.426;2023-05-17T04:38:55;2.20;;;2.00;;
17414;SDS011;8825;48.086;16.426;2023-05-17T04:41:23;4.37;;;2.87;;
17414;SDS011;8825;48.086;16.426;2023-05-17T04:43:50;2.53;;;2.33;;
17414;SDS011;8825;48.086;16.426;2023-05-17T04:46:18;2.43;;;2.23;;
17414;SDS011;8825;48.086;16.426;2023-05-17T04:48:46;2.63;;;2.30;;
17414;SDS011;8825;48.086;16.426;2023-05-17T04:51:14;2.50;;;2.30;;
17414;SDS011;8825;48.086;16.426;2023-05-17T04:53:41;2.20;;;2.00;;
17414;SDS011;8825;48.086;16.426;2023-05-17T04:56:09;2.47;;;2.10;;
17414;SDS011;8825;48.086;16.426;2023-05-17T04:58:36;2.33;;;2.13;;
17414;SDS011;8825;48.086;16.426;2023-05-17T05:01:04;3.20;;;2.27;;
17414;SDS011;8825;48.086;16.426;2023-05-17T05:03:31;2.13;;;2.00;;
17414;SDS011;8825;48.086;16.426;2023-05-17T05:05:59;2.60;;;2.33;;
17414;SDS011;8825;48.086;16.426;2023-05-17T05:08:26;2.70;;;2.13;;
17414;SDS011;8825;48.086;16.426;2023-05-17T05:10:54;2.40;;;2.20;;
17414;SDS011;8825;48.086;16.426;2023-05-17T05:13:21;2.83;;;2.07;;
17414;SDS011;8825;48.086;16.426;2023-05-17T05:15:49;2.13;;;1.90;;
17414;SDS011;8825;48.086;16.426;2023-05-17T05:18:16;2.70;;;2.20;;
17414;SDS011;8825;48.086;16.426;2023-05-17T05:20:45;2.13;;;1.90;;
17414;SDS011;8825;48.086;16.426;2023-05-17T05:23:14;2.50;;;2.13;;
17414;SDS011;8825;48.086;16.426;2023-05-17T05:25:43;2.50;;;2.30;;
17414;SDS011;8825;48.086;16.426;2023-05-17T05:28:12;2.20;;;2.00;;
17414;SDS011;8825;48.086;16.426;2023-05-17T05:30:39;2.43;;;2.17;;
17414;SDS011;8825;48.086;16.426;2023-05-17T05:33:07;4.80;;;2.40;;
17414;SDS011;8825;48.086;16.426;2023-05-17T05:35:34;2.87;;;2.17;;
17414;SDS011;8825;48.086;16.426;2023-05-17T05:38:02;2.37;;;2.10;;
17414;SDS011;8825;48.086;16.426;2023-05-17T05:40:29;2.77;;;2.47;;
17414;SDS011;8825;48.086;16.426;2023-05-17T05:42:57;4.77;;;2.00;;
17414;SDS011;8825;48.086;16.426;2023-05-17T05:45:24;3.20;;;2.17;;
17414;SDS011;8825;48.086;16.426;2023-05-17T05:47:52;1.90;;;1.70;;
17414;SDS011;8825;48.086;16.426;2023-05-17T05:50:19;3.93;;;2.23;;
17414;SDS011;8825;48.086;16.426;2023-05-17T05:52:47;2.93;;;2.20;;
17414;SDS011;8825;48.086;16.426;2023-05-17T05:55:14;2.93;;;2.40;;
17414;SDS011;8825;48.086;16.426;2023-05-17T05:57:42;2.93;;;2.13;;
17414;SDS011;8825;48.086;16.426;2023-05-17T06:00:10;3.77;;;2.10;;
17414;SDS011;8825;48.086;16.426;2023-05-17T06:02:38;2.77;;;2.03;;
17414;SDS011;8825;48.086;16.426;2023-05-17T06:05:06;2.37;;;2.10;;
17414;SDS011;8825;48.086;16.426;2023-05-17T06:07:34;2.33;;;1.90;;
17414;SDS011;8825;48.086;16.426;2023-05-17T06:10:01;3.23;;;2.00;;
17414;SDS011;8825;48.086;16.426;2023-05-17T06:12:29;4.77;;;2.37;;
17414;SDS011;8825;48.086;16.426;2023-05-17T06:14:56;2.33;;;2.07;;
17414;SDS011;8825;48.086;16.426;2023-05-17T06:17:24;2.50;;;1.87;;
17414;SDS011;8825;48.086;16.426;2023-05-17T06:19:51;2.90;;;2.20;;
17414;SDS011;8825;48.086;16.426;2023-05-17T06:22:19;3.37;;;2.03;;
17414;SDS011;8825;48.086;16.426;2023-05-17T06:24:47;3.90;;;2.30;;
17414;SDS011;8825;48.086;16.426;2023-05-17T06:27:14;3.60;;;2.27;;
17414;SDS011;8825;48.086;16.426;2023-05-17T06:29:42;3.20;;;2.17;;
17414;SDS011;8825;48.086;16.426;2023-05-17T06:32:09;2.53;;;2.10;;
17414;SDS011;8825;48.086;16.426;2023-05-17T06:37:23;3.73;;;2.60;;
17414;SDS011;8825;48.086;16.426;2023-05-17T06:39:51;3.03;;;2.67;;
17414;SDS011;8825;48.086;16.426;2023-05-17T06:42:19;2.70;;;2.50;;
17414;SDS011;8825;48.086;16.426;2023-05-17T06:44:46;4.00;;;2.60;;
17414;SDS011;8825;48.086;16.426;2023-05-17T06:47:14;2.90;;;2.50;;
17414;SDS011;8825;48.086;16.426;2023-05-17T06:49:43;3.33;;;2.57;;
17414;SDS011;8825;48.086;16.426;2023-05-17T06:55:33;3.73;;;3.00;;
17414;SDS011;8825;48.086;16.426;2023-05-17T07:01:23;2.70;;;2.50;;
17414;SDS011;8825;48.086;16.426;2023-05-17T07:03:50;3.20;;;2.37;;
17414;SDS011;8825;48.086;16.426;2023-05-17T07:06:18;3.03;;;2.53;;
17414;SDS011;8825;48.086;16.426;2023-05-17T07:08:46;3.37;;;2.80;;
17414;SDS011;8825;48.086;16.426;2023-05-17T07:11:14;4.57;;;2.70;;
17414;SDS011;8825;48.086;16.426;2023-05-17T07:13:42;3.43;;;2.83;;
17414;SDS011;8825;48.086;16.426;2023-05-17T07:16:09;4.47;;;2.47;;
17414;SDS011;8825;48.086;16.426;2023-05-17T07:18:37;4.47;;;2.90;;
17414;SDS011;8825;48.086;16.426;2023-05-17T07:21:05;3.40;;;3.10;;
17414;SDS011;8825;48.086;16.426;2023-05-17T07:23:33;3.30;;;3.00;;
17414;SDS011;8825;48.086;16.426;2023-05-17T07:29:23;4.53;;;3.23;;
17414;SDS011;8825;48.086;16.426;2023-05-17T07:35:13;5.30;;;3.80;;
17414;SDS011;8825;48.086;16.426;2023-05-17T07:41:03;4.93;;;3.53;;
17414;SDS011;8825;48.086;16.426;2023-05-17T07:43:32;4.43;;;3.70;;
17414;SDS011;8825;48.086;16.426;2023-05-17T07:46:00;3.80;;;3.40;;
17414;SDS011;8825;48.086;16.426;2023-05-17T07:51:50;4.13;;;3.77;;
17414;SDS011;8825;48.086;16.426;2023-05-17T07:54:21;4.50;;;3.80;;
17414;SDS011;8825;48.086;16.426;2023-05-17T07:56:54;4.57;;;3.53;;
17414;SDS011;8825;48.086;16.426;2023-05-17T07:59:41;4.40;;;4.00;;
17414;SDS011;8825;48.086;16.426;2023-05-17T08:05:30;5.63;;;3.70;;
17414;SDS011;8825;48.086;16.426;2023-05-17T08:11:20;3.60;;;3.30;;
17414;SDS011;8825;48.086;16.426;2023-05-17T08:17:10;4.23;;;3.13;;
17414;SDS011;8825;48.086;16.426;2023-05-17T08:19:37;5.10;;;3.20;;
17414;SDS011;8825;48.086;16.426;2023-05-17T08:22:05;5.03;;;3.17;;
17414;SDS011;8825;48.086;16.426;2023-05-17T08:27:55;3.93;;;2.83;;
17414;SDS011;8825;48.086;16.426;2023-05-17T08:30:23;6.63;;;3.30;;
17414;SDS011;8825;48.086;16.426;2023-05-17T08:36:13;4.13;;;3.00;;
17414;SDS011;8825;48.086;16.426;2023-05-17T08:42:06;3.70;;;3.00;;
17414;SDS011;8825;48.086;16.426;2023-05-17T08:44:35;4.97;;;3.23;;
17414;SDS011;8825;48.086;16.426;2023-05-17T08:47:03;4.30;;;3.03;;
17414;SDS011;8825;48.086;16.426;2023-05-17T08:49:34;3.43;;;2.77;;
17414;SDS011;8825;48.086;16.426;2023-05-17T08:52:02;4.00;;;3.20;;
17414;SDS011;8825;48.086;16.426;2023-05-17T08:57:57;4.90;;;3.23;;
17414;SDS011;8825;48.086;16.426;2023-05-17T09:00:26;7.43;;;3.20;;
17414;SDS011;8825;48.086;16.426;2023-05-17T09:06:18;6.33;;;3.20;;
17414;SDS011;8825;48.086;16.426;2023-05-17T09:12:09;7.70;;;3.10;;
17414;SDS011;8825;48.086;16.426;2023-05-17T09:17:59;4.27;;;3.10;;
17414;SDS011;8825;48.086;16.426;2023-05-17T09:20:27;2.97;;;2.57;;
17414;SDS011;8825;48.086;16.426;2023-05-17T09:26:24;4.60;;;2.80;;
17414;SDS011;8825;48.086;16.426;2023-05-17T09:32:17;4.00;;;2.87;;
17414;SDS011;8825;48.086;16.426;2023-05-17T09:38:12;5.97;;;2.80;;
17414;SDS011;8825;48.086;16.426;2023-05-17T09:44:06;3.27;;;2.40;;
17414;SDS011;8825;48.086;16.426;2023-05-17T09:46:58;3.60;;;2.50;;
17414;SDS011;8825;48.086;16.426;2023-05-17T09:52:33;4.77;;;2.80;;
17414;SDS011;8825;48.086;16.426;2023-05-17T09:58:23;2.97;;;2.40;;
17414;SDS011;8825;48.086;16.426;2023-05-17T10:01:00;3.50;;;2.20;;
17414;SDS011;8825;48.086;16.426;2023-05-17T10:06:55;3.27;;;2.90;;
17414;SDS011;8825;48.086;16.426;2023-05-17T10:12:47;4.73;;;2.57;;
17414;SDS011;8825;48.086;16.426;2023-05-17T10:15:19;2.60;;;2.20;;
17414;SDS011;8825;48.086;16.426;2023-05-17T10:17:51;2.77;;;2.40;;
17414;SDS011;8825;48.086;16.426;2023-05-17T10:23:42;3.70;;;2.30;;
17414;SDS011;8825;48.086;16.426;2023-05-17T10:26:13;3.80;;;2.63;;
17414;SDS011;8825;48.086;16.426;2023-05-17T10:28:46;3.07;;;2.17;;
17414;SDS011;8825;48.086;16.426;2023-05-17T10:31:51;4.90;;;2.67;;
17414;SDS011;8825;48.086;16.426;2023-05-17T10:37:44;2.77;;;2.40;;
17414;SDS011;8825;48.086;16.426;2023-05-17T10:43:38;2.93;;;2.33;;
17414;SDS011;8825;48.086;16.426;2023-05-17T10:46:16;2.87;;;2.60;;
17414;SDS011;8825;48.086;16.426;2023-05-17T10:48:50;4.23;;;2.60;;
17414;SDS011;8825;48.086;16.426;2023-05-17T10:51:38;4.13;;;2.70;;
17414;SDS011;8825;48.086;16.426;2023-05-17T10:57:34;6.27;;;2.43;;
17414;SDS011;8825;48.086;16.426;2023-05-17T11:03:25;2.77;;;2.53;;
17414;SDS011;8825;48.086;16.426;2023-05-17T11:09:17;4.33;;;2.80;;
17414;SDS011;8825;48.086;16.426;2023-05-17T11:12:04;4.97;;;2.73;;
17414;SDS011;8825;48.086;16.426;2023-05-17T11:17:57;2.53;;;2.33;;
17414;SDS011;8825;48.086;16.426;2023-05-17T11:23:53;3.00;;;2.67;;
17414;SDS011;8825;48.086;16.426;2023-05-17T11:26:28;3.60;;;2.50;;
17414;SDS011;8825;48.086;16.426;2023-05-17T11:32:30;3.63;;;2.40;;
17414;SDS011;8825;48.086;16.426;2023-05-17T11:38:27;5.50;;;2.80;;
17414;SDS011;8825;48.086;16.426;2023-05-17T11:44:24;4.33;;;2.53;;
17414;SDS011;8825;48.086;16.426;2023-05-17T11:46:59;3.30;;;2.60;;
17414;SDS011;8825;48.086;16.426;2023-05-17T11:52:53;3.13;;;2.50;;
17414;SDS011;8825;48.086;16.426;2023-05-17T11:58:55;3.63;;;2.33;;
17414;SDS011;8825;48.086;16.426;2023-05-17T12:04:43;3.57;;;2.27;;
17414;SDS011;8825;48.086;16.426;2023-05-17T12:10:35;3.53;;;2.57;;
17414;SDS011;8825;48.086;16.426;2023-05-17T12:13:05;3.33;;;3.00;;
17414;SDS011;8825;48.086;16.426;2023-05-17T12:18:58;3.47;;;2.30;;
17414;SDS011;8825;48.086;16.426;2023-05-17T12:21:27;3.47;;;2.50;;
17414;SDS011;8825;48.086;16.426;2023-05-17T12:23:59;5.47;;;2.80;;
17414;SDS011;8825;48.086;16.426;2023-05-17T12:26:30;3.83;;;2.50;;
17414;SDS011;8825;48.086;16.426;2023-05-17T12:29:00;3.00;;;2.20;;
17414;SDS011;8825;48.086;16.426;2023-05-17T12:34:51;4.40;;;2.63;;
17414;SDS011;8825;48.086;16.426;2023-05-17T12:37:19;3.40;;;2.60;;
17414;SDS011;8825;48.086;16.426;2023-05-17T12:39:47;3.77;;;2.80;;
17414;SDS011;8825;48.086;16.426;2023-05-17T12:49:12;3.87;;;2.70;;
17414;SDS011;8825;48.086;16.426;2023-05-17T12:51:43;3.50;;;2.80;;
17414;SDS011;8825;48.086;16.426;2023-05-17T12:54:13;5.13;;;2.73;;
17414;SDS011;8825;48.086;16.426;2023-05-17T12:56:42;3.17;;;2.30;;
17414;SDS011;8825;48.086;16.426;2023-05-17T13:05:16;3.27;;;2.50;;
17414;SDS011;8825;48.086;16.426;2023-05-17T13:11:13;3.30;;;2.50;;
17414;SDS011;8825;48.086;16.426;2023-05-17T13:13:42;3.17;;;2.40;;
17414;SDS011;8825;48.086;16.426;2023-05-17T13:19:32;2.97;;;2.77;;
17414;SDS011;8825;48.086;16.426;2023-05-17T13:22:03;4.70;;;2.70;;
17414;SDS011;8825;48.086;16.426;2023-05-17T13:24:35;4.83;;;3.10;;
17414;SDS011;8825;48.086;16.426;2023-05-17T13:30:26;5.60;;;2.63;;
17414;SDS011;8825;48.086;16.426;2023-05-17T13:32:54;4.27;;;2.90;;
17414;SDS011;8825;48.086;16.426;2023-05-17T13:38:44;3.40;;;2.57;;
17414;SDS011;8825;48.086;16.426;2023-05-17T13:44:34;6.70;;;2.70;;
17414;SDS011;8825;48.086;16.426;2023-05-17T13:50:25;3.43;;;2.60;;
17414;SDS011;8825;48.086;16.426;2023-05-17T13:52:53;3.57;;;2.57;;
17414;SDS011;8825;48.086;16.426;2023-05-17T13:55:21;4.93;;;2.77;;
17414;SDS011;8825;48.086;16.426;2023-05-17T13:57:49;3.17;;;2.87;;
17414;SDS011;8825;48.086;16.426;2023-05-17T14:00:17;4.40;;;2.90;;
17414;SDS011;8825;48.086;16.426;2023-05-17T14:02:45;3.80;;;2.97;;
17414;SDS011;8825;48.086;16.426;2023-05-17T14:05:13;6.33;;;3.83;;
17414;SDS011;8825;48.086;16.426;2023-05-17T14:07:41;4.63;;;3.00;;
17414;SDS011;8825;48.086;16.426;2023-05-17T14:10:10;3.90;;;3.10;;
17414;SDS011;8825;48.086;16.426;2023-05-17T14:12:38;4.17;;;3.13;;
17414;SDS011;8825;48.086;16.426;2023-05-17T14:15:07;5.33;;;3.27;;
17414;SDS011;8825;48.086;16.426;2023-05-17T14:17:36;4.27;;;3.10;;
17414;SDS011;8825;48.086;16.426;2023-05-17T14:20:04;3.60;;;3.00;;
17414;SDS011;8825;48.086;16.426;2023-05-17T14:25:55;3.70;;;3.27;;
17414;SDS011;8825;48.086;16.426;2023-05-17T14:28:23;3.27;;;2.90;;
17414;SDS011;8825;48.086;16.426;2023-05-17T14:34:13;4.93;;;3.67;;
17414;SDS011;8825;48.086;16.426;2023-05-17T14:40:03;6.17;;;3.40;;
17414;SDS011;8825;48.086;16.426;2023-05-17T14:45:54;6.63;;;5.27;;
17414;SDS011;8825;48.086;16.426;2023-05-17T14:48:22;7.13;;;6.03;;
17414;SDS011;8825;48.086;16.426;2023-05-17T14:50:50;5.73;;;4.97;;
17414;SDS011;8825;48.086;16.426;2023-05-17T14:53:18;6.57;;;5.23;;
17414;SDS011;8825;48.086;16.426;2023-05-17T14:55:46;6.60;;;5.90;;
17414;SDS011;8825;48.086;16.426;2023-05-17T15:01:36;6.20;;;5.60;;
17414;SDS011;8825;48.086;16.426;2023-05-17T15:04:04;8.97;;;6.90;;
17414;SDS011;8825;48.086;16.426;2023-05-17T15:09:54;7.07;;;5.90;;
17414;SDS011;8825;48.086;16.426;2023-05-17T15:15:44;8.10;;;6.10;;
17414;SDS011;8825;48.086;16.426;2023-05-17T15:18:12;7.37;;;5.97;;
17414;SDS011;8825;48.086;16.426;2023-05-17T15:20:40;6.47;;;5.20;;
17414;SDS011;8825;48.086;16.426;2023-05-17T15:23:08;5.90;;;5.23;;
17414;SDS011;8825;48.086;16.426;2023-05-17T15:25:36;5.70;;;4.67;;
17414;SDS011;8825;48.086;16.426;2023-05-17T15:31:26;5.37;;;4.90;;
17414;SDS011;8825;48.086;16.426;2023-05-17T15:33:55;6.37;;;5.53;;
17414;SDS011;8825;48.086;16.426;2023-05-17T15:39:46;9.30;;;6.30;;
17414;SDS011;8825;48.086;16.426;2023-05-17T15:45:35;8.00;;;6.73;;
17414;SDS011;8825;48.086;16.426;2023-05-17T15:48:03;6.50;;;5.90;;
17414;SDS011;8825;48.086;16.426;2023-05-17T15:50:32;7.07;;;6.30;;
17414;SDS011;8825;48.086;16.426;2023-05-17T15:56:21;6.33;;;5.20;;
17414;SDS011;8825;48.086;16.426;2023-05-17T15:58:49;5.93;;;5.33;;
17414;SDS011;8825;48.086;16.426;2023-05-17T16:01:17;5.60;;;5.10;;
17414;SDS011;8825;48.086;16.426;2023-05-17T16:03:45;6.30;;;5.13;;
17414;SDS011;8825;48.086;16.426;2023-05-17T16:06:13;5.43;;;4.87;;
17414;SDS011;8825;48.086;16.426;2023-05-17T16:08:41;5.50;;;5.00;;
17414;SDS011;8825;48.086;16.426;2023-05-17T16:11:08;6.53;;;5.50;;
17414;SDS011;8825;48.086;16.426;2023-05-17T16:13:37;5.93;;;5.23;;
17414;SDS011;8825;48.086;16.426;2023-05-17T16:16:05;5.43;;;4.93;;
17414;SDS011;8825;48.086;16.426;2023-05-17T16:18:32;6.07;;;5.57;;
17414;SDS011;8825;48.086;16.426;2023-05-17T16:21:01;6.13;;;5.50;;
17414;SDS011;8825;48.086;16.426;2023-05-17T16:23:29;8.53;;;6.53;;
17414;SDS011;8825;48.086;16.426;2023-05-17T16:25:57;8.70;;;6.87;;
17414;SDS011;8825;48.086;16.426;2023-05-17T16:28:25;5.90;;;5.30;;
17414;SDS011;8825;48.086;16.426;2023-05-17T16:30:53;5.33;;;4.83;;
17414;SDS011;8825;48.086;16.426;2023-05-17T16:33:21;5.30;;;4.80;;
17414;SDS011;8825;48.086;16.426;2023-05-17T16:35:49;4.87;;;4.27;;
17414;SDS011;8825;48.086;16.426;2023-05-17T16:51:17;4.77;;;4.37;;
17414;SDS011;8825;48.086;16.426;2023-05-17T16:57:07;4.97;;;3.73;;
17414;SDS011;8825;48.086;16.426;2023-05-17T16:59:35;6.13;;;4.17;;
17414;SDS011;8825;48.086;16.426;2023-05-17T17:05:30;4.80;;;3.87;;
17414;SDS011;8825;48.086;16.426;2023-05-17T17:11:17;5.57;;;5.00;;
17414;SDS011;8825;48.086;16.426;2023-05-17T17:17:09;6.40;;;4.97;;
17414;SDS011;8825;48.086;16.426;2023-05-17T17:19:37;4.67;;;4.27;;
17414;SDS011;8825;48.086;16.426;2023-05-17T17:25:27;4.87;;;4.03;;
17414;SDS011;8825;48.086;16.426;2023-05-17T17:31:17;5.63;;;5.00;;
17414;SDS011;8825;48.086;16.426;2023-05-17T17:37:07;5.97;;;5.00;;
17414;SDS011;8825;48.086;16.426;2023-05-17T17:39:35;8.37;;;5.53;;
17414;SDS011;8825;48.086;16.426;2023-05-17T17:42:03;6.80;;;5.27;;
17414;SDS011;8825;48.086;16.426;2023-05-17T17:47:54;6.87;;;5.50;;
17414;SDS011;8825;48.086;16.426;2023-05-17T17:50:22;7.07;;;5.27;;
17414;SDS011;8825;48.086;16.426;2023-05-17T17:59:36;6.50;;;5.47;;
17414;SDS011;8825;48.086;16.426;2023-05-17T18:02:04;7.00;;;5.43;;
17414;SDS011;8825;48.086;16.426;2023-05-17T18:04:32;8.03;;;6.13;;
17414;SDS011;8825;48.086;16.426;2023-05-17T18:07:02;6.03;;;5.30;;
17414;SDS011;8825;48.086;16.426;2023-05-17T18:12:53;6.23;;;5.63;;
17414;SDS011;8825;48.086;16.426;2023-05-17T18:18:30;7.30;;;5.80;;
17414;SDS011;8825;48.086;16.426;2023-05-17T18:21:02;6.03;;;5.43;;
17414;SDS011;8825;48.086;16.426;2023-05-17T18:26:51;6.13;;;5.40;;
17414;SDS011;8825;48.086;16.426;2023-05-17T18:29:22;7.60;;;6.10;;
17414;SDS011;8825;48.086;16.426;2023-05-17T18:31:53;6.17;;;5.37;;
17414;SDS011;8825;48.086;16.426;2023-05-17T18:34:24;5.93;;;4.90;;
17414;SDS011;8825;48.086;16.426;2023-05-17T18:36:54;7.93;;;5.70;;
17414;SDS011;8825;48.086;16.426;2023-05-17T18:39:24;8.53;;;5.97;;
17414;SDS011;8825;48.086;16.426;2023-05-17T18:41:54;7.53;;;6.83;;
17414;SDS011;8825;48.086;16.426;2023-05-17T18:47:43;8.17;;;5.33;;
17414;SDS011;8825;48.086;16.426;2023-05-17T18:50:11;6.67;;;4.90;;
17414;SDS011;8825;48.086;16.426;2023-05-17T18:56:01;6.53;;;5.07;;
17414;SDS011;8825;48.086;16.426;2023-05-17T19:01:54;5.80;;;5.23;;
17414;SDS011;8825;48.086;16.426;2023-05-17T19:07:47;5.63;;;4.77;;
17414;SDS011;8825;48.086;16.426;2023-05-17T19:10:16;6.10;;;5.30;;
17414;SDS011;8825;48.086;16.426;2023-05-17T19:16:10;6.97;;;5.47;;
17414;SDS011;8825;48.086;16.426;2023-05-17T19:22:05;5.57;;;5.00;;
17414;SDS011;8825;48.086;16.426;2023-05-17T19:24:36;4.80;;;4.20;;
17414;SDS011;8825;48.086;16.426;2023-05-17T19:27:07;4.80;;;4.30;;
17414;SDS011;8825;48.086;16.426;2023-05-17T19:33:01;5.10;;;4.30;;
17414;SDS011;8825;48.086;16.426;2023-05-17T19:38:53;4.50;;;3.70;;
17414;SDS011;8825;48.086;16.426;2023-05-17T19:41:23;4.50;;;3.90;;
17414;SDS011;8825;48.086;16.426;2023-05-17T19:43:54;4.80;;;4.27;;
17414;SDS011;8825;48.086;16.426;2023-05-17T19:46:27;6.63;;;4.60;;
17414;SDS011;8825;48.086;16.426;2023-05-17T19:52:17;4.73;;;4.17;;
17414;SDS011;8825;48.086;16.426;2023-05-17T19:58:07;4.47;;;3.97;;
17414;SDS011;8825;48.086;16.426;2023-05-17T20:00:34;5.40;;;4.90;;
17414;SDS011;8825;48.086;16.426;2023-05-17T20:06:25;6.57;;;4.13;;
17414;SDS011;8825;48.086;16.426;2023-05-17T20:12:14;5.83;;;4.87;;
17414;SDS011;8825;48.086;16.426;2023-05-17T20:18:04;5.33;;;4.27;;
17414;SDS011;8825;48.086;16.426;2023-05-17T20:20:33;5.73;;;4.40;;